Time;durP1;ratioP1;P1;durP2;ratioP2;P2;SDS_P1;SDS_P2;PMS_P1;PMS_P2;Temp;Humidity;BMP_temperature;BMP_pressure;BME280_temperature;BME280_humidity;BME280_pressure;Samples;Min_cycle;Max_cycle;Signal;HPM_P1;HPM_P2
2023/05/12 00:01:26;;;;;;;7.35;4.68;;;8.10;73.70;;;;;;5115278;28;20035;-72
2023/05/12 00:03:52;;;;;;;8.00;4.50;;;8.00;74.00;;;;;;5113919;28;20047;-73
2023/05/12 00:06:21;;;;;;;5.88;3.90;;;8.00;73.30;;;;;;5112030;28;20012;-73
2023/05/12 00:08:46;;;;;;;6.25;4.05;;;8.00;72.30;;;;;;5114186;28;20288;-73
2023/05/12 00:11:12;;;;;;;7.38;4.50;;;8.10;72.50;;;;;;5116058;28;20038;-72
2023/05/12 00:13:38;;;;;;;7.35;4.72;;;8.10;72.10;;;;;;5114501;28;20030;-72
2023/05/12 00:16:04;;;;;;;8.00;4.60;;;8.20;72.30;;;;;;5115360;28;20023;-72
2023/05/12 00:18:30;;;;;;;6.82;4.05;;;8.20;73.20;;;;;;5112309;28;20363;-72
2023/05/12 00:20:56;;;;;;;5.68;3.58;;;8.20;72.90;;;;;;5115758;28;20077;-73
2023/05/12 00:23:21;;;;;;;5.03;3.42;;;8.20;73.40;;;;;;5114869;28;20027;-72
2023/05/12 00:25:47;;;;;;;6.10;4.20;;;8.20;73.30;;;;;;5098046;28;20361;-72
2023/05/12 00:28:13;;;;;;;6.32;3.45;;;8.20;73.40;;;;;;5114679;28;20028;-72
2023/05/12 00:30:38;;;;;;;5.45;3.63;;;8.30;73.30;;;;;;5115892;28;20322;-75
2023/05/12 00:33:04;;;;;;;5.40;3.45;;;8.30;74.20;;;;;;5116113;28;20050;-72
2023/05/12 00:35:30;;;;;;;5.18;3.58;;;8.30;73.80;;;;;;5116004;28;20028;-72
2023/05/12 00:37:55;;;;;;;5.65;3.60;;;8.30;74.90;;;;;;5114639;28;20023;-73
2023/05/12 00:40:23;;;;;;;8.07;3.55;;;8.30;75.00;;;;;;5118220;28;20369;-73
2023/05/12 00:42:49;;;;;;;4.85;3.00;;;8.30;74.60;;;;;;5119573;28;20011;-73
2023/05/12 00:45:15;;;;;;;4.97;3.38;;;8.30;73.80;;;;;;5120154;28;20084;-73
2023/05/12 00:47:40;;;;;;;5.80;3.47;;;8.30;74.60;;;;;;5119284;28;20027;-73
2023/05/12 00:50:07;;;;;;;4.40;3.08;;;8.40;75.00;;;;;;5119847;28;20027;-72
2023/05/12 00:52:33;;;;;;;4.75;2.83;;;8.40;74.70;;;;;;5119071;28;20038;-72
2023/05/12 00:55:00;;;;;;;7.15;3.15;;;8.40;75.40;;;;;;5118581;28;20066;-73
2023/05/12 00:57:28;;;;;;;8.02;3.55;;;8.50;75.10;;;;;;5116212;28;20427;-72
2023/05/12 00:59:54;;;;;;;5.95;3.20;;;8.50;75.60;;;;;;5119071;28;20019;-72
2023/05/12 01:02:21;;;;;;;6.53;3.58;;;8.40;77.50;;;;;;5116484;28;20030;-73
2023/05/12 01:04:47;;;;;;;6.75;3.97;;;8.40;77.10;;;;;;5117394;28;20024;-73
2023/05/12 01:07:24;;;;;;;6.18;3.03;;;8.40;76.80;;;;;;5116938;28;20336;-73
2023/05/12 01:09:55;;;;;;;4.97;3.10;;;8.30;76.60;;;;;;5117230;28;20016;-73
2023/05/12 01:12:24;;;;;;;4.78;3.10;;;8.40;76.10;;;;;;5119065;28;20076;-73
2023/05/12 01:14:51;;;;;;;4.72;3.17;;;8.40;76.20;;;;;;5118660;28;20086;-73
2023/05/12 01:17:20;;;;;;;6.38;3.13;;;8.40;76.90;;;;;;5119178;28;20462;-73
2023/05/12 01:19:58;;;;;;;6.75;3.10;;;8.40;77.20;;;;;;5119048;28;20106;-72
2023/05/12 01:22:26;;;;;;;8.10;3.33;;;8.40;77.30;;;;;;5116311;28;20061;-73
2023/05/12 01:24:56;;;;;;;4.95;3.13;;;8.40;77.50;;;;;;5117295;28;20031;-73
2023/05/12 01:27:24;;;;;;;7.22;3.25;;;8.40;78.10;;;;;;5117998;28;20022;-73
2023/05/12 01:29:51;;;;;;;4.47;2.88;;;8.40;78.10;;;;;;5111595;28;20751;-73
2023/05/12 01:32:17;;;;;;;5.97;3.03;;;8.40;77.50;;;;;;5100092;28;20031;-72
2023/05/12 01:34:43;;;;;;;5.80;3.05;;;8.40;77.60;;;;;;5117295;28;20016;-73
2023/05/12 01:37:09;;;;;;;6.85;3.20;;;8.40;78.10;;;;;;5111971;28;20023;-73
2023/05/12 01:39:35;;;;;;;4.32;2.80;;;8.30;77.70;;;;;;5096900;28;20083;-73
2023/05/12 01:42:02;;;;;;;6.15;2.80;;;8.30;78.10;;;;;;5117198;28;20027;-73
2023/05/12 01:44:27;;;;;;;4.65;3.20;;;8.30;78.40;;;;;;5117533;28;20028;-73
2023/05/12 01:46:53;;;;;;;6.55;3.35;;;8.30;77.80;;;;;;5117266;28;20316;-72
2023/05/12 01:49:18;;;;;;;6.32;3.63;;;8.20;78.30;;;;;;5116495;28;20024;-73
2023/05/12 01:51:44;;;;;;;4.70;2.95;;;8.20;77.60;;;;;;5099092;28;20310;-72
2023/05/12 01:54:10;;;;;;;4.97;3.00;;;8.20;77.10;;;;;;5113689;28;20080;-73
2023/05/12 01:56:35;;;;;;;8.05;3.55;;;8.10;77.00;;;;;;5109322;28;20042;-72
2023/05/12 01:59:01;;;;;;;4.10;2.70;;;8.10;76.60;;;;;;5117462;28;20039;-73
2023/05/12 02:01:27;;;;;;;4.53;2.95;;;8.10;76.60;;;;;;5114288;28;20039;-73
2023/05/12 02:03:56;;;;;;;4.10;2.63;;;8.10;76.00;;;;;;5114031;28;20024;-73
2023/05/12 02:06:22;;;;;;;5.72;2.78;;;8.10;75.90;;;;;;5088944;28;20415;-73
2023/05/12 02:08:48;;;;;;;6.40;3.13;;;8.00;75.80;;;;;;5092989;28;20098;-73
2023/05/12 02:11:14;;;;;;;5.30;3.65;;;8.00;75.50;;;;;;5113102;28;20422;-72
2023/05/12 02:13:40;;;;;;;4.70;2.38;;;8.00;75.40;;;;;;5097216;28;20060;-72
2023/05/12 02:16:06;;;;;;;4.75;2.78;;;8.00;74.50;;;;;;5115575;28;20103;-72
2023/05/12 02:18:32;;;;;;;5.22;2.88;;;8.00;75.00;;;;;;5093133;28;20028;-72
2023/05/12 02:20:58;;;;;;;4.78;2.88;;;8.00;75.10;;;;;;5096450;28;20032;-73
2023/05/12 02:23:23;;;;;;;5.65;2.97;;;8.00;74.50;;;;;;5115823;28;20020;-72
2023/05/12 02:25:49;;;;;;;4.20;2.70;;;8.00;74.80;;;;;;5114024;28;20072;-72
2023/05/12 02:28:14;;;;;;;4.15;2.63;;;8.00;74.50;;;;;;5114569;28;20124;-72
2023/05/12 02:30:47;;;;;;;7.38;3.10;;;8.00;74.20;;;;;;5115637;28;20419;-72
2023/05/12 02:33:14;;;;;;;4.72;2.88;;;7.90;74.50;;;;;;5114021;28;20055;-72
2023/05/12 02:35:39;;;;;;;5.72;2.80;;;7.90;73.70;;;;;;5093828;28;20036;-73
2023/05/12 02:38:05;;;;;;;5.53;2.63;;;8.00;73.90;;;;;;5112597;28;20027;-73
2023/05/12 02:40:30;;;;;;;4.32;2.67;;;8.00;73.80;;;;;;5115132;28;20472;-72
2023/05/12 02:42:56;;;;;;;6.43;2.70;;;8.00;73.80;;;;;;5115007;28;20024;-72
2023/05/12 02:45:22;;;;;;;6.28;3.28;;;8.00;73.90;;;;;;5115750;28;20358;-72
2023/05/12 02:47:47;;;;;;;4.60;2.70;;;8.00;73.60;;;;;;5117301;28;20031;-73
2023/05/12 02:50:13;;;;;;;6.25;3.30;;;7.90;73.60;;;;;;5115658;28;20319;-74
2023/05/12 02:52:39;;;;;;;4.40;2.97;;;7.90;73.70;;;;;;5116173;28;20020;-72
2023/05/12 02:55:04;;;;;;;4.72;3.00;;;7.90;73.50;;;;;;5097158;28;20043;-73
2023/05/12 02:57:33;;;;;;;7.35;2.65;;;7.90;73.40;;;;;;5114639;28;20142;-74
2023/05/12 03:00:05;;;;;;;5.82;3.08;;;8.00;73.20;;;;;;5117058;28;20094;-73
2023/05/12 03:02:32;;;;;;;4.68;3.10;;;8.00;73.50;;;;;;5105029;28;20020;-73
2023/05/12 03:04:57;;;;;;;6.97;3.40;;;8.00;73.10;;;;;;5113032;28;20027;-73
2023/05/12 03:07:23;;;;;;;5.13;3.17;;;8.00;73.20;;;;;;5114270;28;20024;-73
2023/05/12 03:09:48;;;;;;;4.20;2.83;;;8.00;73.30;;;;;;5115495;28;20042;-73
2023/05/12 03:12:14;;;;;;;5.15;3.00;;;8.00;73.70;;;;;;5099039;28;20248;-74
2023/05/12 03:14:43;;;;;;;6.05;2.92;;;8.00;73.40;;;;;;5116626;28;20023;-74
2023/05/12 03:17:08;;;;;;;5.32;2.70;;;8.00;73.50;;;;;;5116084;28;20034;-74
2023/05/12 03:19:34;;;;;;;4.47;2.80;;;8.00;73.40;;;;;;5111868;28;20019;-73
2023/05/12 03:22:00;;;;;;;4.40;2.85;;;8.00;73.70;;;;;;5097958;28;20032;-73
2023/05/12 03:24:26;;;;;;;5.50;2.80;;;8.00;73.60;;;;;;5111354;28;20027;-73
2023/05/12 03:26:51;;;;;;;6.13;3.25;;;8.00;73.70;;;;;;5092997;28;20024;-73
2023/05/12 03:29:17;;;;;;;4.22;2.63;;;8.10;73.70;;;;;;5114253;28;20023;-73
2023/05/12 03:31:42;;;;;;;5.65;3.00;;;8.10;74.10;;;;;;5114827;28;20099;-73
2023/05/12 03:34:08;;;;;;;4.55;2.72;;;8.00;74.20;;;;;;5114093;28;20085;-73
2023/05/12 03:36:33;;;;;;;5.80;2.47;;;8.00;74.30;;;;;;5116000;28;20030;-73
2023/05/12 03:39:02;;;;;;;5.38;2.88;;;8.00;74.40;;;;;;5113898;28;20032;-73
2023/05/12 03:41:27;;;;;;;4.35;2.72;;;8.00;74.40;;;;;;5097213;28;20023;-73
2023/05/12 03:43:53;;;;;;;7.78;3.28;;;8.00;74.30;;;;;;5113092;28;20024;-73
2023/05/12 03:46:19;;;;;;;4.43;2.75;;;8.00;74.80;;;;;;5115403;28;20111;-73
2023/05/12 03:48:45;;;;;;;4.28;2.70;;;8.00;74.90;;;;;;5114156;28;20487;-73
2023/05/12 03:51:10;;;;;;;4.60;2.50;;;8.00;74.50;;;;;;5114649;28;20036;-73
2023/05/12 03:53:36;;;;;;;6.28;2.92;;;8.00;74.00;;;;;;5114498;28;20360;-72
2023/05/12 03:56:04;;;;;;;5.82;2.78;;;8.00;74.20;;;;;;5113654;28;20027;-72
2023/05/12 03:58:30;;;;;;;4.82;2.90;;;8.10;74.10;;;;;;5115598;28;20036;-72
2023/05/12 04:00:56;;;;;;;5.10;3.10;;;8.10;74.20;;;;;;5115183;28;20369;-73
2023/05/12 04:03:22;;;;;;;4.57;2.55;;;8.00;75.50;;;;;;5112402;28;20023;-73
2023/05/12 04:05:47;;;;;;;4.88;3.08;;;8.00;74.50;;;;;;5114931;28;20416;-73
2023/05/12 04:08:13;;;;;;;5.45;3.20;;;8.00;74.90;;;;;;5113701;28;20297;-73
2023/05/12 04:10:39;;;;;;;4.30;2.83;;;8.00;74.80;;;;;;5113470;28;20027;-73
2023/05/12 04:13:06;;;;;;;5.43;2.72;;;8.00;73.50;;;;;;5112328;28;20439;-73
2023/05/12 04:15:35;;;;;;;4.90;2.83;;;8.10;73.60;;;;;;5118324;28;20027;-73
2023/05/12 04:18:02;;;;;;;7.40;5.15;;;8.10;73.80;;;;;;5118110;28;20070;-73
2023/05/12 04:20:27;;;;;;;7.18;4.80;;;8.10;75.40;;;;;;5101582;28;20031;-73
2023/05/12 04:22:53;;;;;;;11.25;5.88;;;8.10;75.30;;;;;;5094960;28;20485;-73
2023/05/12 04:25:18;;;;;;;7.25;4.50;;;8.10;74.90;;;;;;5114975;28;20028;-73
2023/05/12 04:27:44;;;;;;;9.15;6.10;;;8.10;73.90;;;;;;5118552;28;20024;-74
2023/05/12 04:30:10;;;;;;;12.02;6.45;;;8.20;74.80;;;;;;5114654;28;20051;-73
2023/05/12 04:32:35;;;;;;;8.52;5.30;;;8.20;74.90;;;;;;5101737;28;20100;-73
2023/05/12 04:35:01;;;;;;;6.97;4.43;;;8.20;74.60;;;;;;5117488;28;20027;-73
2023/05/12 04:37:26;;;;;;;8.73;5.05;;;8.30;73.90;;;;;;5115282;28;20039;-73
2023/05/12 04:39:52;;;;;;;8.52;5.22;;;8.30;75.40;;;;;;5117927;28;20492;-73
2023/05/12 04:42:18;;;;;;;8.23;4.68;;;8.30;75.50;;;;;;5118300;28;20022;-73
2023/05/12 04:44:45;;;;;;;6.80;4.40;;;8.40;75.10;;;;;;5116945;28;20027;-73
2023/05/12 04:47:11;;;;;;;8.15;3.83;;;8.50;75.70;;;;;;5119825;28;20015;-73
2023/05/12 04:49:37;;;;;;;6.63;3.67;;;8.60;76.90;;;;;;5119865;28;20058;-73
2023/05/12 04:52:04;;;;;;;6.03;2.85;;;8.60;77.80;;;;;;5115251;28;20055;-73
2023/05/12 04:54:31;;;;;;;6.30;3.50;;;8.70;78.40;;;;;;5115555;28;20027;-73
2023/05/12 04:56:56;;;;;;;7.00;4.50;;;8.80;78.80;;;;;;5117164;28;20047;-73
2023/05/12 04:59:22;;;;;;;7.68;4.57;;;8.90;79.90;;;;;;5117037;28;20026;-73
2023/05/12 05:01:48;;;;;;;6.80;4.65;;;9.00;81.10;;;;;;5097030;28;20040;-73
2023/05/12 05:04:13;;;;;;;8.98;5.68;;;9.20;82.90;;;;;;5118855;28;20024;-73
2023/05/12 05:06:39;;;;;;;7.50;5.30;;;9.30;86.00;;;;;;5115396;28;20407;-73
2023/05/12 05:09:04;;;;;;;8.13;5.00;;;9.30;86.20;;;;;;5114431;28;20617;-73
2023/05/12 05:11:30;;;;;;;9.02;4.88;;;9.40;87.60;;;;;;5111548;28;20097;-73
2023/05/12 05:13:55;;;;;;;8.63;6.38;;;9.60;88.80;;;;;;5097772;28;20032;-73
2023/05/12 05:16:21;;;;;;;8.73;6.00;;;9.70;90.30;;;;;;5115878;28;20399;-73
2023/05/12 05:18:47;;;;;;;8.32;5.75;;;9.70;90.70;;;;;;5116044;28;20110;-74
2023/05/12 05:21:13;;;;;;;7.88;5.38;;;9.80;90.90;;;;;;5112724;28;20023;-73
2023/05/12 05:23:39;;;;;;;7.03;5.20;;;9.90;92.30;;;;;;5114541;28;20020;-73
2023/05/12 05:26:05;;;;;;;8.45;5.20;;;9.90;93.20;;;;;;5096677;28;20084;-73
2023/05/12 05:28:31;;;;;;;7.00;5.05;;;10.00;93.80;;;;;;5093413;28;20019;-73
2023/05/12 05:30:56;;;;;;;6.50;4.75;;;10.10;93.70;;;;;;5110468;28;20031;-73
2023/05/12 05:33:22;;;;;;;7.38;4.63;;;10.20;94.20;;;;;;5110551;28;20031;-72
2023/05/12 05:35:48;;;;;;;9.00;4.70;;;10.30;95.30;;;;;;5117521;28;20408;-73
2023/05/12 05:38:13;;;;;;;5.72;4.15;;;10.40;96.30;;;;;;5114923;28;20019;-73
2023/05/12 05:40:39;;;;;;;9.27;4.60;;;10.40;96.00;;;;;;5114209;28;20039;-73
2023/05/12 05:43:05;;;;;;;5.50;3.58;;;10.60;96.30;;;;;;5111696;28;20031;-73
2023/05/12 05:45:31;;;;;;;5.55;3.75;;;10.80;97.30;;;;;;5115467;28;20023;-73
2023/05/12 05:47:57;;;;;;;8.50;4.78;;;10.90;97.50;;;;;;5118064;27;20020;-73
2023/05/12 05:50:22;;;;;;;5.45;3.95;;;11.10;98.00;;;;;;5118741;28;20031;-73
2023/05/12 05:52:48;;;;;;;8.05;5.30;;;11.10;98.00;;;;;;5103506;28;20032;-73
2023/05/12 05:55:14;;;;;;;8.10;4.38;;;11.20;98.00;;;;;;5103363;28;20023;-73
2023/05/12 05:57:39;;;;;;;16.23;9.70;;;11.30;98.00;;;;;;5118337;27;20065;-73
2023/05/12 06:00:08;;;;;;;15.40;8.85;;;11.30;98.00;;;;;;5102139;28;20099;-72
2023/05/12 06:02:34;;;;;;;8.55;5.93;;;11.30;98.00;;;;;;5114864;28;20063;-73
2023/05/12 06:05:00;;;;;;;10.43;7.05;;;11.50;98.00;;;;;;5092303;28;20030;-74
2023/05/12 06:07:26;;;;;;;7.90;5.63;;;11.50;98.00;;;;;;5112390;28;20487;-73
2023/05/12 06:09:54;;;;;;;8.75;6.70;;;11.40;98.00;;;;;;5112412;28;20058;-73
2023/05/12 06:12:20;;;;;;;11.15;7.00;;;11.50;98.00;;;;;;5112362;28;20024;-73
2023/05/12 06:14:48;;;;;;;10.40;6.85;;;11.40;98.00;;;;;;5114090;28;20030;-73
2023/05/12 06:17:17;;;;;;;9.27;6.78;;;11.60;98.00;;;;;;5110907;28;21338;-73
2023/05/12 06:19:46;;;;;;;12.25;6.25;;;11.60;98.00;;;;;;5111359;28;20095;-73
2023/05/12 06:22:13;;;;;;;10.98;7.03;;;11.70;98.00;;;;;;5096906;28;20032;-74
2023/05/12 06:24:39;;;;;;;8.95;7.10;;;11.80;98.00;;;;;;5115896;28;20016;-73
2023/05/12 06:27:05;;;;;;;9.30;7.03;;;12.00;98.00;;;;;;5117026;28;20031;-73
2023/05/12 06:29:30;;;;;;;10.85;5.95;;;12.00;98.00;;;;;;5116022;28;20420;-73
2023/05/12 06:31:56;;;;;;;11.93;7.53;;;11.80;98.00;;;;;;5116912;28;20063;-73
2023/05/12 06:34:21;;;;;;;8.93;6.28;;;11.90;98.00;;;;;;5092900;28;20020;-72
2023/05/12 06:36:47;;;;;;;10.77;5.95;;;11.80;98.00;;;;;;5098204;28;20032;-72
2023/05/12 06:39:13;;;;;;;9.75;6.30;;;12.00;98.00;;;;;;5116645;28;20020;-72
2023/05/12 06:41:39;;;;;;;8.60;6.00;;;12.00;98.00;;;;;;5099644;28;20020;-72
2023/05/12 06:44:05;;;;;;;7.57;5.90;;;12.00;98.00;;;;;;5116478;28;20092;-72
2023/05/12 06:46:31;;;;;;;10.68;5.90;;;12.20;98.00;;;;;;5114770;28;20031;-72
2023/05/12 06:48:59;;;;;;;9.50;6.97;;;12.50;98.00;;;;;;5101007;28;20098;-73
2023/05/12 06:51:24;;;;;;;6.38;3.97;;;12.30;98.00;;;;;;5116408;28;20038;-74
2023/05/12 06:53:50;;;;;;;8.20;5.47;;;12.20;98.00;;;;;;5107640;28;20036;-75
2023/05/12 06:56:16;;;;;;;8.80;4.90;;;12.30;98.00;;;;;;5110023;28;20036;-72
2023/05/12 06:58:42;;;;;;;9.90;4.20;;;12.40;98.00;;;;;;5109010;28;20053;-73
2023/05/12 07:01:07;;;;;;;7.13;4.80;;;12.60;98.00;;;;;;5107370;28;20445;-73
2023/05/12 07:03:33;;;;;;;10.18;5.20;;;12.90;98.00;;;;;;5108402;28;20023;-73
2023/05/12 07:05:59;;;;;;;7.75;3.83;;;12.70;98.00;;;;;;5106800;28;20031;-73
2023/05/12 07:08:25;;;;;;;8.40;5.70;;;12.80;98.00;;;;;;5109387;28;20024;-73
2023/05/12 07:10:50;;;;;;;6.55;4.43;;;12.80;98.00;;;;;;5107511;28;20647;-73
2023/05/12 07:13:16;;;;;;;8.30;4.95;;;12.80;98.00;;;;;;5107911;28;20489;-72
2023/05/12 07:15:42;;;;;;;7.00;3.97;;;12.90;97.90;;;;;;5107907;28;20446;-73
2023/05/12 07:18:07;;;;;;;6.40;3.95;;;12.90;98.00;;;;;;5106264;28;20019;-73
2023/05/12 07:20:33;;;;;;;8.32;4.45;;;13.40;98.00;;;;;;5107421;28;20324;-73
2023/05/12 07:22:58;;;;;;;12.70;4.80;;;13.60;97.30;;;;;;5088458;28;20031;-73
2023/05/12 07:25:24;;;;;;;8.68;4.78;;;13.70;97.20;;;;;;5111914;28;20023;-73
2023/05/12 07:27:49;;;;;;;6.68;3.67;;;13.70;96.80;;;;;;5111180;28;20096;-73
2023/05/12 07:30:15;;;;;;;8.05;3.92;;;13.70;97.00;;;;;;5109926;28;20027;-72
2023/05/12 07:32:41;;;;;;;6.18;3.80;;;13.70;97.00;;;;;;5108702;28;20122;-73
2023/05/12 07:35:08;;;;;;;6.97;3.72;;;13.90;96.60;;;;;;5111229;28;20406;-72
2023/05/12 07:37:34;;;;;;;8.20;3.70;;;13.70;96.30;;;;;;5097979;28;20366;-72
2023/05/12 07:39:59;;;;;;;7.30;4.47;;;13.80;96.90;;;;;;5094565;28;20044;-72
2023/05/12 07:42:25;;;;;;;7.95;4.68;;;13.80;96.20;;;;;;5110812;28;20028;-72
2023/05/12 07:44:51;;;;;;;6.88;3.75;;;13.90;96.40;;;;;;5112940;28;20471;-72
2023/05/12 07:47:16;;;;;;;6.03;3.65;;;14.10;96.00;;;;;;5107215;28;20030;-72
2023/05/12 07:49:42;;;;;;;6.05;4.43;;;14.60;94.90;;;;;;5110616;28;20054;-72
2023/05/12 07:52:07;;;;;;;6.63;3.97;;;14.80;93.60;;;;;;5110016;28;20031;-72
2023/05/12 07:54:33;;;;;;;5.38;3.97;;;14.70;94.80;;;;;;5112473;28;20081;-74
2023/05/12 07:56:58;;;;;;;7.32;4.03;;;14.70;93.90;;;;;;5104870;28;20067;-72
2023/05/12 07:59:24;;;;;;;6.68;3.63;;;14.80;93.40;;;;;;5112326;28;20412;-72
2023/05/12 08:01:49;;;;;;;5.18;3.92;;;14.80;93.90;;;;;;5112653;28;20493;-72
2023/05/12 08:04:15;;;;;;;5.57;4.13;;;14.50;93.70;;;;;;5112421;28;20027;-72
2023/05/12 08:06:41;;;;;;;7.07;4.13;;;14.30;94.20;;;;;;5108359;28;20019;-72
2023/05/12 08:09:06;;;;;;;7.00;4.00;;;14.60;94.20;;;;;;5111599;28;20073;-72
2023/05/12 08:11:32;;;;;;;5.90;3.97;;;14.90;93.50;;;;;;5111254;28;20428;-72
2023/05/12 08:13:57;;;;;;;5.72;3.78;;;14.90;92.90;;;;;;5108627;28;20032;-72
2023/05/12 08:16:23;;;;;;;5.22;3.25;;;15.20;92.50;;;;;;5112344;28;20062;-72
2023/05/12 08:18:48;;;;;;;5.65;3.70;;;15.60;91.90;;;;;;5105692;28;20054;-72
2023/05/12 08:21:14;;;;;;;5.60;3.90;;;15.90;89.50;;;;;;5106806;28;20319;-72
2023/05/12 08:23:39;;;;;;;7.00;4.00;;;16.20;89.20;;;;;;5108959;28;20074;-72
2023/05/12 08:26:05;;;;;;;5.82;3.53;;;15.90;88.30;;;;;;5113723;28;20108;-72
2023/05/12 08:28:31;;;;;;;6.82;3.58;;;15.80;89.10;;;;;;5108563;28;20031;-72
2023/05/12 08:30:57;;;;;;;5.75;3.28;;;16.40;89.50;;;;;;5111486;28;20030;-72
2023/05/12 08:33:23;;;;;;;5.35;3.17;;;16.40;88.20;;;;;;5109141;28;20030;-72
2023/05/12 08:35:49;;;;;;;5.25;3.47;;;16.40;87.40;;;;;;5106173;28;20027;-72
2023/05/12 08:38:15;;;;;;;5.18;3.40;;;16.30;87.10;;;;;;5111644;28;20036;-72
2023/05/12 08:41:01;;;;;;;5.32;3.50;;;15.60;88.40;;;;;;5099982;28;20035;-72
2023/05/12 08:43:40;;;;;;;5.20;3.50;;;15.70;89.10;;;;;;5086840;28;20024;-72
2023/05/12 08:46:06;;;;;;;7.38;3.47;;;15.70;89.80;;;;;;5106917;28;20054;-73
2023/05/12 08:48:34;;;;;;;8.85;3.80;;;15.80;90.30;;;;;;5104360;28;20051;-72
2023/05/12 08:51:01;;;;;;;6.63;4.07;;;15.50;89.60;;;;;;5113194;28;20040;-72
2023/05/12 08:53:28;;;;;;;6.57;3.30;;;15.20;90.90;;;;;;5110286;28;20023;-72
2023/05/12 08:55:54;;;;;;;6.55;3.65;;;14.90;91.70;;;;;;5098271;28;20424;-72
2023/05/12 08:58:20;;;;;;;5.57;3.38;;;14.70;90.90;;;;;;5119804;28;20053;-72
2023/05/12 09:00:46;;;;;;;5.43;3.47;;;14.70;92.10;;;;;;5119384;27;20171;-72
2023/05/12 09:03:13;;;;;;;8.98;4.72;;;14.90;91.70;;;;;;5119774;27;20023;-72
2023/05/12 09:05:41;;;;;;;6.38;4.10;;;14.70;92.00;;;;;;5110249;27;20023;-73
2023/05/12 09:08:08;;;;;;;9.32;4.70;;;14.10;93.20;;;;;;5117295;27;20412;-72
2023/05/12 09:10:35;;;;;;;6.68;4.72;;;14.20;93.60;;;;;;5100086;28;20380;-73
2023/05/12 09:13:32;;;;;;;5.32;3.65;;;14.40;93.70;;;;;;5112820;27;20032;-73
2023/05/12 09:16:05;;;;;;;6.20;4.38;;;14.80;92.00;;;;;;5094212;28;20166;-73
2023/05/12 09:18:46;;;;;;;8.02;4.60;;;14.80;91.20;;;;;;5094238;28;20047;-72
2023/05/12 09:21:15;;;;;;;7.68;4.20;;;14.90;91.20;;;;;;5115312;28;20028;-74
2023/05/12 09:23:54;;;;;;;5.28;3.83;;;15.30;90.60;;;;;;5116387;28;20028;-72
2023/05/12 09:26:22;;;;;;;8.73;5.72;;;16.10;88.70;;;;;;5115759;28;20048;-72
2023/05/12 09:28:49;;;;;;;6.57;4.63;;;16.10;88.60;;;;;;5117804;28;20035;-72
2023/05/12 09:31:16;;;;;;;8.75;5.50;;;15.80;88.70;;;;;;5095308;28;20028;-72
2023/05/12 09:33:41;;;;;;;8.05;5.68;;;15.50;90.40;;;;;;5117573;28;20028;-72
2023/05/12 09:36:07;;;;;;;6.72;5.13;;;15.60;90.20;;;;;;5119150;28;20103;-72
2023/05/12 09:38:33;;;;;;;6.47;5.05;;;15.80;88.80;;;;;;5117109;28;20035;-72
2023/05/12 09:40:58;;;;;;;6.25;4.80;;;16.00;88.50;;;;;;5115328;28;20444;-72
2023/05/12 09:43:24;;;;;;;6.93;4.05;;;16.10;88.20;;;;;;5109520;28;20297;-72
2023/05/12 09:45:50;;;;;;;6.38;4.30;;;16.20;86.90;;;;;;5110160;28;20329;-73
2023/05/12 09:48:16;;;;;;;6.30;4.53;;;16.30;87.80;;;;;;5110606;28;20098;-73
2023/05/12 09:50:46;;;;;;;5.93;4.07;;;16.40;87.30;;;;;;5112713;28;20555;-72
2023/05/12 09:53:13;;;;;;;6.80;4.40;;;16.70;87.10;;;;;;5112327;28;20051;-72
2023/05/12 09:55:41;;;;;;;7.32;4.30;;;16.90;85.90;;;;;;5110035;28;20040;-74
2023/05/12 09:58:11;;;;;;;6.72;4.85;;;17.00;87.50;;;;;;5094417;28;20030;-72
2023/05/12 10:00:40;;;;;;;5.72;3.88;;;17.00;87.30;;;;;;5116972;28;20031;-72
2023/05/12 10:03:14;;;;;;;6.38;4.43;;;16.70;88.90;;;;;;5117033;28;20293;-72
2023/05/12 10:05:53;;;;;;;7.63;3.90;;;17.10;91.80;;;;;;5118585;28;20113;-72
2023/05/12 10:08:42;;;;;;;8.80;4.95;;;18.60;88.20;;;;;;5117285;28;20029;-72
2023/05/12 10:11:11;;;;;;;5.20;3.55;;;18.70;80.60;;;;;;5116365;28;20035;-72
2023/05/12 10:13:38;;;;;;;5.68;3.67;;;18.40;82.60;;;;;;5116148;28;20032;-72
2023/05/12 10:16:05;;;;;;;6.85;3.33;;;18.80;82.70;;;;;;5117477;28;20031;-72
2023/05/12 10:18:33;;;;;;;5.00;2.95;;;19.10;80.40;;;;;;5115530;28;20308;-72
2023/05/12 10:21:00;;;;;;;5.60;2.75;;;18.60;80.50;;;;;;5118193;28;20024;-72
2023/05/12 10:23:26;;;;;;;5.85;3.17;;;18.90;82.00;;;;;;5116184;28;20020;-72
2023/05/12 10:26:00;;;;;;;6.15;2.53;;;19.20;82.30;;;;;;5115679;28;20020;-73
2023/05/12 10:28:26;;;;;;;;;;;19.40;79.50;;;;;;5115796;28;20423;-73
2023/05/12 10:30:52;;;;;;;3.85;2.20;;;19.70;78.20;;;;;;5116888;28;19904;-72
2023/05/12 10:33:18;;;;;;;3.22;1.80;;;19.80;77.70;;;;;;5116455;28;20055;-75
2023/05/12 10:35:44;;;;;;;4.30;2.25;;;19.70;78.30;;;;;;5115073;28;20070;-72
2023/05/12 10:38:15;;;;;;;5.68;2.40;;;19.60;76.60;;;;;;5115869;28;20036;-72
2023/05/12 10:41:01;;;;;;;3.35;1.80;;;19.10;76.70;;;;;;5115234;28;20407;-73
2023/05/12 10:43:37;;;;;;;4.55;2.38;;;18.90;79.80;;;;;;5098099;28;20327;-72
2023/05/12 10:46:08;;;;;;;2.80;1.35;;;18.90;77.80;;;;;;5117864;28;20412;-72
2023/05/12 10:48:37;;;;;;;2.03;1.08;;;19.30;76.70;;;;;;5115036;28;20096;-73
2023/05/12 10:51:07;;;;;;;3.28;1.63;;;19.80;76.70;;;;;;5117865;28;20063;-72
2023/05/12 10:53:33;;;;;;;3.72;1.75;;;20.50;74.60;;;;;;5113772;28;20034;-72
2023/05/12 10:56:03;;;;;;;3.20;1.70;;;20.60;74.10;;;;;;5114702;28;20048;-72
2023/05/12 10:58:28;;;;;;;3.63;2.10;;;20.10;75.50;;;;;;5115712;28;20039;-72
2023/05/12 11:01:01;;;;;;;4.45;2.00;;;19.50;75.00;;;;;;5116547;28;20023;-72
2023/05/12 11:03:27;;;;;;;4.05;2.40;;;19.00;77.70;;;;;;5115484;28;20023;-72
2023/05/12 11:06:03;;;;;;;6.05;2.55;;;18.60;79.10;;;;;;5116562;28;20034;-72
2023/05/12 11:08:33;;;;;;;5.65;2.97;;;18.30;80.50;;;;;;5111947;28;20024;-72
2023/05/12 11:11:00;;;;;;;5.65;3.90;;;17.60;82.60;;;;;;5115896;28;20057;-72
2023/05/12 11:13:27;;;;;;;7.32;3.70;;;16.90;85.70;;;;;;5115485;28;20367;-72
2023/05/12 11:15:55;;;;;;;5.95;3.70;;;16.30;88.20;;;;;;5115521;28;20023;-72
2023/05/12 11:18:22;;;;;;;7.32;3.78;;;16.10;89.10;;;;;;5115033;28;20046;-72
2023/05/12 11:20:49;;;;;;;5.45;3.53;;;15.80;90.40;;;;;;5116223;28;20106;-72
2023/05/12 11:23:31;;;;;;;4.45;2.60;;;15.80;91.40;;;;;;5114415;28;20024;-72
2023/05/12 11:25:56;;;;;;;5.60;3.35;;;16.50;93.10;;;;;;5111189;28;20024;-72
2023/05/12 11:28:22;;;;;;;6.25;3.50;;;17.30;87.80;;;;;;5117032;28;20018;-72
2023/05/12 11:30:53;;;;;;;5.38;3.33;;;17.90;85.30;;;;;;5118311;27;20032;-72
2023/05/12 11:33:22;;;;;;;5.22;3.05;;;18.10;86.40;;;;;;5116909;28;20028;-72
2023/05/12 11:35:49;;;;;;;5.57;3.20;;;18.20;83.70;;;;;;5115228;28;20053;-72
2023/05/12 11:38:16;;;;;;;6.63;2.90;;;18.00;85.00;;;;;;5115640;28;20027;-72
2023/05/12 11:40:42;;;;;;;4.25;2.53;;;18.40;83.90;;;;;;5114794;28;20026;-72
2023/05/12 11:43:09;;;;;;;4.25;2.67;;;19.10;82.70;;;;;;5116306;28;20076;-72
2023/05/12 11:45:34;;;;;;;3.90;2.45;;;19.00;80.90;;;;;;5116031;28;20024;-72
2023/05/12 11:48:11;;;;;;;4.32;2.63;;;19.10;81.20;;;;;;5116676;28;20020;-72
2023/05/12 11:50:41;;;;;;;4.70;2.40;;;18.90;83.40;;;;;;5115958;28;20019;-72
2023/05/12 11:53:13;;;;;;;4.00;2.25;;;18.60;84.30;;;;;;5114269;28;20110;-72
2023/05/12 11:55:50;;;;;;;3.97;2.30;;;18.20;85.50;;;;;;5115282;28;20358;-74
2023/05/12 11:58:29;;;;;;;7.55;3.33;;;18.00;84.90;;;;;;5115539;28;20032;-75
2023/05/12 12:00:56;;;;;;;3.45;1.92;;;18.00;85.30;;;;;;5098395;28;20036;-73
2023/05/12 12:03:22;;;;;;;3.22;1.58;;;17.90;85.40;;;;;;5115911;28;20012;-73
2023/05/12 12:06:02;;;;;;;2.25;1.23;;;17.30;83.30;;;;;;5097686;28;20035;-72
2023/05/12 12:08:27;;;;;;;3.28;1.50;;;16.60;85.80;;;;;;5115288;28;20020;-73
2023/05/12 12:10:56;;;;;;;3.28;1.40;;;16.70;85.20;;;;;;5115451;28;20032;-72
2023/05/12 12:13:23;;;;;;;2.03;1.15;;;16.90;88.60;;;;;;5098478;28;20304;-73
2023/05/12 12:15:49;;;;;;;2.47;1.00;;;17.50;85.70;;;;;;5114749;28;20443;-72
2023/05/12 12:18:15;;;;;;;2.35;1.30;;;17.70;83.30;;;;;;5097768;28;20375;-73
2023/05/12 12:20:42;;;;;;;3.38;1.02;;;17.90;82.20;;;;;;5097268;28;20055;-72
2023/05/12 12:23:08;;;;;;;2.10;0.88;;;18.10;82.10;;;;;;5115093;28;20428;-72
2023/05/12 12:25:34;;;;;;;2.63;1.05;;;18.30;82.00;;;;;;5115336;28;20024;-72
2023/05/12 12:27:59;;;;;;;2.67;1.10;;;18.30;83.20;;;;;;5116309;28;20034;-72
2023/05/12 12:30:28;;;;;;;1.83;1.00;;;18.20;82.50;;;;;;5116299;28;20032;-73
2023/05/12 12:32:53;;;;;;;1.75;0.88;;;18.20;83.60;;;;;;5114621;28;20050;-73
2023/05/12 12:35:23;;;;;;;2.10;1.00;;;18.30;82.30;;;;;;5117808;28;20020;-72
2023/05/12 12:37:50;;;;;;;2.13;1.10;;;18.30;81.50;;;;;;5118522;28;20528;-72
2023/05/12 12:40:17;;;;;;;1.83;1.00;;;18.30;79.70;;;;;;5120117;28;20102;-72
2023/05/12 12:42:42;;;;;;;2.38;0.95;;;18.40;78.90;;;;;;5119106;28;20035;-72
2023/05/12 12:45:08;;;;;;;1.17;0.70;;;18.50;78.70;;;;;;5120381;28;20034;-72
2023/05/12 12:47:35;;;;;;;2.88;0.85;;;18.80;77.70;;;;;;5118133;28;20060;-71
2023/05/12 12:50:00;;;;;;;1.15;0.75;;;18.90;79.30;;;;;;5119204;28;20035;-72